Time;durP1;ratioP1;P1;durP2;ratioP2;P2;SDS_P1;SDS_P2;PMS_P1;PMS_P2;Temp;Humidity;BMP_temperature;BMP_pressure;BME280_temperature;BME280_humidity;BME280_pressure;Samples;Min_cycle;Max_cycle;Signal;HPM_P1;HPM_P2
2022/03/23 00:00:06;;;;;;;12.70;8.45;;;4.00;71.10;;;;;;6311604;22;20320;-67
2022/03/23 00:02:31;;;;;;;13.40;8.68;;;4.00;71.30;;;;;;6311314;22;20301;-65
2022/03/23 00:04:57;;;;;;;15.40;8.52;;;3.80;72.60;;;;;;6311810;22;20045;-66
2022/03/23 00:07:24;;;;;;;13.45;8.48;;;3.60;73.80;;;;;;6309785;22;20015;-66
2022/03/23 00:09:53;;;;;;;15.50;8.88;;;3.40;74.10;;;;;;6283353;22;20008;-65
2022/03/23 00:12:21;;;;;;;12.48;8.00;;;3.30;74.80;;;;;;6309264;22;20268;-65
2022/03/23 00:14:46;;;;;;;11.30;7.63;;;3.20;74.20;;;;;;6309895;22;20037;-65
2022/03/23 00:17:12;;;;;;;12.15;8.35;;;3.30;73.00;;;;;;6310374;22;20003;-66
2022/03/23 00:19:38;;;;;;;13.50;8.68;;;3.20;74.40;;;;;;6311258;22;20004;-68
2022/03/23 00:22:04;;;;;;;15.10;8.45;;;3.30;73.40;;;;;;6311588;22;19995;-67
2022/03/23 00:24:31;;;;;;;14.20;8.60;;;3.40;71.70;;;;;;6283674;22;20029;-66
2022/03/23 00:26:57;;;;;;;13.70;7.90;;;3.80;70.00;;;;;;6309739;22;20014;-66
2022/03/23 00:29:22;;;;;;;12.93;7.65;;;4.30;68.50;;;;;;6311253;22;19999;-66
2022/03/23 00:31:48;;;;;;;14.10;7.43;;;4.60;67.50;;;;;;6311440;22;20006;-66
2022/03/23 00:34:14;;;;;;;13.32;7.35;;;4.90;66.60;;;;;;6311452;22;20014;-66
2022/03/23 00:36:39;;;;;;;19.25;7.88;;;5.00;66.80;;;;;;6311362;22;19995;-66
2022/03/23 00:39:05;;;;;;;14.13;7.20;;;5.00;66.10;;;;;;6310838;22;19999;-66
2022/03/23 00:41:31;;;;;;;12.98;7.97;;;5.00;65.90;;;;;;6309755;22;20098;-66
2022/03/23 00:43:56;;;;;;;11.82;7.22;;;5.00;65.80;;;;;;6310894;22;20049;-66
2022/03/23 00:46:24;;;;;;;12.68;7.40;;;4.90;66.10;;;;;;6311173;22;20074;-66
2022/03/23 00:48:50;;;;;;;14.45;7.57;;;4.90;65.60;;;;;;6310591;22;19999;-66
2022/03/23 00:51:16;;;;;;;12.20;7.55;;;4.90;65.60;;;;;;6310906;22;20003;-66
2022/03/23 00:53:41;;;;;;;16.27;8.30;;;4.90;66.10;;;;;;6311288;22;20349;-66
2022/03/23 00:56:07;;;;;;;11.90;8.32;;;4.80;66.10;;;;;;6309911;22;20006;-66
2022/03/23 00:58:33;;;;;;;12.38;7.95;;;4.70;66.80;;;;;;6282972;22;20000;-66
2022/03/23 01:00:59;;;;;;;13.27;8.10;;;4.70;67.20;;;;;;6310773;22;19999;-66
2022/03/23 01:03:25;;;;;;;16.98;7.70;;;4.70;67.30;;;;;;6310569;22;20265;-66
2022/03/23 01:05:54;;;;;;;14.85;8.52;;;4.60;67.40;;;;;;6310404;22;20003;-66
2022/03/23 01:08:19;;;;;;;12.25;8.20;;;4.50;67.70;;;;;;6310427;22;20254;-66
2022/03/23 01:10:48;;;;;;;17.77;9.00;;;4.50;68.50;;;;;;6310907;22;20121;-66
2022/03/23 01:13:14;;;;;;;16.00;8.40;;;4.50;68.10;;;;;;6308983;22;20003;-66
2022/03/23 01:15:39;;;;;;;12.93;8.73;;;4.50;68.30;;;;;;6310520;22;20353;-66
2022/03/23 01:18:05;;;;;;;13.25;7.88;;;4.50;68.50;;;;;;6310254;22;20002;-66
2022/03/23 01:20:30;;;;;;;13.95;8.32;;;4.50;68.60;;;;;;6283336;22;20353;-66
2022/03/23 01:22:56;;;;;;;11.70;7.93;;;4.40;68.70;;;;;;6310728;22;20027;-66
2022/03/23 01:25:22;;;;;;;15.57;8.18;;;4.30;69.50;;;;;;6283165;22;20315;-66
2022/03/23 01:27:48;;;;;;;15.48;8.23;;;4.30;69.40;;;;;;6309106;22;19999;-66
2022/03/23 01:30:16;;;;;;;13.52;8.57;;;4.10;70.20;;;;;;6309886;22;20004;-67
2022/03/23 01:32:43;;;;;;;12.90;8.20;;;3.90;71.60;;;;;;6310162;22;20253;-66
2022/03/23 01:35:10;;;;;;;13.73;8.55;;;3.60;72.20;;;;;;6310311;22;20002;-66
2022/03/23 01:37:36;;;;;;;13.93;9.07;;;3.70;71.90;;;;;;6283013;22;19999;-66
2022/03/23 01:40:07;;;;;;;12.57;8.27;;;3.70;71.10;;;;;;6310173;22;20053;-66
2022/03/23 01:42:33;;;;;;;13.15;8.48;;;3.80;70.70;;;;;;6309026;22;19999;-66
2022/03/23 01:44:59;;;;;;;14.43;7.85;;;4.00;70.40;;;;;;6309899;22;20000;-66
2022/03/23 01:47:24;;;;;;;14.55;7.82;;;3.90;70.70;;;;;;6309696;22;20000;-66
2022/03/23 01:49:55;;;;;;;15.25;8.75;;;3.70;71.40;;;;;;6309698;22;19995;-66
2022/03/23 01:52:23;;;;;;;13.73;8.90;;;3.50;72.60;;;;;;6309646;22;19996;-66
2022/03/23 01:54:49;;;;;;;14.60;9.45;;;3.30;75.70;;;;;;6309807;22;20007;-66
2022/03/23 01:57:17;;;;;;;14.35;9.10;;;3.00;76.50;;;;;;6308635;22;20038;-66
2022/03/23 01:59:44;;;;;;;15.45;9.80;;;2.60;77.50;;;;;;6282623;22;20007;-66
2022/03/23 02:02:10;;;;;;;16.63;10.57;;;2.30;78.80;;;;;;6309731;22;20010;-65
2022/03/23 02:04:36;;;;;;;17.00;9.10;;;2.00;79.30;;;;;;6309680;22;20006;-66
2022/03/23 02:07:03;;;;;;;14.20;9.75;;;1.70;80.10;;;;;;6282489;22;20023;-66
2022/03/23 02:09:29;;;;;;;15.93;9.05;;;1.60;81.10;;;;;;6282657;22;20086;-65
2022/03/23 02:11:56;;;;;;;14.65;10.20;;;1.50;82.10;;;;;;6308072;22;20006;-65
2022/03/23 02:14:22;;;;;;;14.20;9.95;;;1.50;82.30;;;;;;6309863;22;20003;-67
2022/03/23 02:16:50;;;;;;;15.32;9.32;;;1.50;82.20;;;;;;6309942;22;20286;-66
2022/03/23 02:19:21;;;;;;;16.23;9.73;;;1.50;82.60;;;;;;6309741;22;20025;-65
2022/03/23 02:21:56;;;;;;;14.48;9.18;;;1.60;81.80;;;;;;6310113;22;20075;-66
2022/03/23 02:24:32;;;;;;;12.07;8.07;;;1.70;81.10;;;;;;6309953;22;20013;-66
2022/03/23 02:26:59;;;;;;;11.88;8.13;;;1.80;80.40;;;;;;6308585;22;20052;-66
2022/03/23 02:29:29;;;;;;;12.52;7.50;;;1.70;80.40;;;;;;6310253;22;20007;-66
2022/03/23 02:31:56;;;;;;;12.25;7.22;;;1.70;80.70;;;;;;6309362;22;20040;-67
2022/03/23 02:34:25;;;;;;;15.32;9.48;;;1.70;79.90;;;;;;6310070;22;20007;-66
2022/03/23 02:36:51;;;;;;;11.85;8.40;;;1.70;81.30;;;;;;6310002;22;19996;-66
2022/03/23 02:39:17;;;;;;;14.32;8.85;;;1.60;82.00;;;;;;6310005;22;20004;-66
2022/03/23 02:41:43;;;;;;;11.35;7.60;;;1.60;81.40;;;;;;6308439;22;20307;-67
2022/03/23 02:44:13;;;;;;;11.48;7.35;;;1.60;81.20;;;;;;6309464;22;20003;-67
2022/03/23 02:46:39;;;;;;;14.55;7.63;;;1.60;81.20;;;;;;6310006;22;20078;-65
2022/03/23 02:49:05;;;;;;;12.23;7.13;;;1.80;80.30;;;;;;6310279;22;20084;-67
2022/03/23 02:51:31;;;;;;;13.88;7.10;;;2.00;79.40;;;;;;6309559;22;20010;-66
2022/03/23 03:02:35;;;;;;;11.95;7.40;;;2.60;77.10;;;;;;6309416;22;20066;-66
2022/03/23 03:05:01;;;;;;;11.95;7.75;;;2.50;77.30;;;;;;6311148;22;20003;-66
2022/03/23 03:07:27;;;;;;;17.58;8.05;;;2.40;77.40;;;;;;6311386;22;20015;-66
2022/03/23 03:09:52;;;;;;;10.73;7.07;;;2.40;78.20;;;;;;6311672;22;20073;-66
2022/03/23 03:12:18;;;;;;;12.45;7.93;;;2.30;78.00;;;;;;6310590;22;20364;-66
2022/03/23 03:14:48;;;;;;;10.57;7.22;;;2.30;78.00;;;;;;6311106;22;20388;-67
2022/03/23 03:17:13;;;;;;;10.63;7.30;;;2.20;78.00;;;;;;6310933;22;20000;-68
2022/03/23 03:19:39;;;;;;;10.57;7.22;;;2.30;78.00;;;;;;6311349;22;20055;-66
2022/03/23 03:22:05;;;;;;;10.77;7.20;;;2.40;77.60;;;;;;6311401;22;19999;-67
2022/03/23 03:24:31;;;;;;;12.07;7.20;;;2.30;77.50;;;;;;6311842;22;20007;-67
2022/03/23 03:26:57;;;;;;;12.32;7.50;;;2.40;77.20;;;;;;6309609;22;20090;-67
2022/03/23 03:29:23;;;;;;;14.65;7.78;;;2.40;76.90;;;;;;6284213;22;20014;-67
2022/03/23 03:31:49;;;;;;;10.65;6.80;;;2.40;77.30;;;;;;6311483;22;20087;-67
2022/03/23 03:34:18;;;;;;;11.90;7.75;;;2.30;77.30;;;;;;6284506;22;20007;-67
2022/03/23 03:36:44;;;;;;;13.30;7.63;;;2.30;77.60;;;;;;6283840;22;20242;-67
2022/03/23 03:39:09;;;;;;;11.85;7.82;;;2.30;78.20;;;;;;6311056;22;20052;-67
2022/03/23 03:41:35;;;;;;;13.00;7.63;;;2.20;78.00;;;;;;6309688;22;19995;-67
2022/03/23 03:44:01;;;;;;;16.45;8.82;;;2.00;78.40;;;;;;6311439;22;20384;-67
2022/03/23 03:46:27;;;;;;;14.20;7.35;;;1.80;79.20;;;;;;6310613;22;20030;-66
2022/03/23 03:48:53;;;;;;;12.45;7.47;;;1.60;79.90;;;;;;6311296;22;20380;-67
2022/03/23 03:51:19;;;;;;;11.40;7.35;;;1.50;80.60;;;;;;6311160;22;20030;-67
2022/03/23 03:53:45;;;;;;;11.52;8.35;;;1.50;80.90;;;;;;6311044;22;19999;-67
2022/03/23 03:56:11;;;;;;;13.75;8.20;;;1.70;79.90;;;;;;6310078;22;20063;-67
2022/03/23 03:58:38;;;;;;;12.50;8.15;;;2.00;78.50;;;;;;6310760;22;20072;-66
2022/03/23 04:01:04;;;;;;;12.02;8.27;;;2.20;77.40;;;;;;6311043;22;20021;-67
2022/03/23 04:03:29;;;;;;;23.10;11.73;;;2.30;77.40;;;;;;6311042;22;20014;-67
2022/03/23 04:05:55;;;;;;;21.20;13.07;;;2.20;77.80;;;;;;6311087;22;20008;-67
2022/03/23 04:08:21;;;;;;;16.05;8.50;;;2.00;78.10;;;;;;6310743;22;20281;-67
2022/03/23 04:10:46;;;;;;;15.57;8.15;;;2.10;78.00;;;;;;6310698;22;20265;-67
2022/03/23 04:13:12;;;;;;;13.07;7.95;;;2.10;78.30;;;;;;6308324;22;20086;-67
2022/03/23 04:15:38;;;;;;;10.55;7.03;;;2.10;78.20;;;;;;6310656;22;20026;-67
2022/03/23 04:18:05;;;;;;;12.23;7.05;;;2.10;78.50;;;;;;6283810;22;20395;-66
2022/03/23 04:20:31;;;;;;;12.68;8.50;;;2.00;78.80;;;;;;6311599;22;20076;-66
2022/03/23 04:22:57;;;;;;;13.13;7.93;;;1.90;79.50;;;;;;6310424;22;20018;-66
2022/03/23 04:25:23;;;;;;;12.40;7.88;;;1.90;79.40;;;;;;6310434;22;20076;-66
2022/03/23 04:27:51;;;;;;;13.23;7.22;;;2.00;78.20;;;;;;6309465;22;19995;-67
2022/03/23 04:30:19;;;;;;;12.77;7.72;;;2.30;77.30;;;;;;6283779;22;20267;-67
2022/03/23 04:32:50;;;;;;;14.48;8.48;;;2.20;78.20;;;;;;6310653;22;19999;-67
2022/03/23 04:35:16;;;;;;;11.10;7.57;;;2.10;78.20;;;;;;6310761;22;19991;-66
2022/03/23 04:37:43;;;;;;;12.18;8.65;;;2.00;77.90;;;;;;6310968;22;20007;-67
2022/03/23 04:40:11;;;;;;;13.07;8.48;;;2.20;77.30;;;;;;6310396;22;20000;-66
2022/03/23 04:42:38;;;;;;;13.65;9.50;;;2.30;76.70;;;;;;6308997;22;20010;-67
2022/03/23 04:45:06;;;;;;;12.90;8.75;;;2.30;76.70;;;;;;6310720;22;20004;-67
2022/03/23 04:47:34;;;;;;;12.80;8.45;;;2.20;77.50;;;;;;6310733;22;20034;-67
2022/03/23 04:50:00;;;;;;;15.73;8.05;;;2.10;77.70;;;;;;6310755;22;19999;-67
2022/03/23 04:52:26;;;;;;;11.52;7.40;;;2.10;77.90;;;;;;6310381;22;20010;-67
2022/03/23 04:54:56;;;;;;;17.17;9.00;;;2.20;77.30;;;;;;6257969;22;20469;-66
2022/03/23 04:57:23;;;;;;;11.88;7.50;;;2.30;77.00;;;;;;6309585;22;20121;-66
2022/03/23 04:59:49;;;;;;;13.20;7.60;;;2.30;76.90;;;;;;6310520;22;20057;-66
2022/03/23 05:02:15;;;;;;;11.82;8.10;;;2.50;76.50;;;;;;6310231;22;19995;-66
2022/03/23 05:04:40;;;;;;;12.55;7.78;;;2.50;76.40;;;;;;6310577;22;20405;-67
2022/03/23 05:07:06;;;;;;;10.35;6.93;;;2.50;76.30;;;;;;6310462;22;20015;-67
2022/03/23 05:09:32;;;;;;;11.73;7.53;;;2.40;76.30;;;;;;6310781;22;20030;-67
2022/03/23 05:11:57;;;;;;;14.98;7.95;;;2.50;75.70;;;;;;6308818;22;20268;-67
2022/03/23 05:14:23;;;;;;;13.25;7.72;;;2.60;75.90;;;;;;6310266;22;20230;-67
2022/03/23 05:16:48;;;;;;;15.43;8.95;;;2.60;76.00;;;;;;6310529;22;20006;-67
2022/03/23 05:19:14;;;;;;;9.93;7.20;;;2.50;76.40;;;;;;6310607;22;19999;-66
2022/03/23 05:21:40;;;;;;;12.45;8.38;;;2.60;75.90;;;;;;6283583;22;20006;-67
2022/03/23 05:24:06;;;;;;;10.63;7.30;;;2.60;75.70;;;;;;6310175;22;20007;-67
2022/03/23 05:26:31;;;;;;;9.52;6.90;;;2.60;75.50;;;;;;6309187;22;20050;-66
2022/03/23 05:28:57;;;;;;;12.98;7.97;;;2.70;75.80;;;;;;6283600;22;20010;-66
2022/03/23 05:31:23;;;;;;;15.98;8.48;;;2.80;75.80;;;;;;6309335;22;20003;-66
2022/03/23 05:33:48;;;;;;;10.20;7.32;;;2.90;75.60;;;;;;6310739;22;20003;-66
2022/03/23 05:36:14;;;;;;;13.43;8.38;;;2.90;75.60;;;;;;6309929;22;20116;-66
2022/03/23 05:38:43;;;;;;;13.68;7.60;;;2.90;75.60;;;;;;6309979;22;20003;-66
2022/03/23 05:41:09;;;;;;;17.15;10.52;;;3.00;75.20;;;;;;6309699;22;20011;-65
2022/03/23 05:43:35;;;;;;;22.85;9.10;;;3.00;75.00;;;;;;6309380;22;20054;-66
2022/03/23 05:46:01;;;;;;;11.68;7.53;;;3.10;75.00;;;;;;6310410;22;20331;-66
2022/03/23 05:48:26;;;;;;;12.65;8.05;;;3.10;74.90;;;;;;6310169;22;20003;-66
2022/03/23 05:50:52;;;;;;;14.18;7.63;;;3.10;75.10;;;;;;6310334;22;20008;-66
2022/03/23 05:53:18;;;;;;;12.60;7.85;;;3.00;75.60;;;;;;6309167;22;20353;-66
2022/03/23 05:55:43;;;;;;;13.93;8.05;;;2.80;76.10;;;;;;6282430;22;20352;-65
2022/03/23 05:58:09;;;;;;;13.68;8.23;;;2.70;76.60;;;;;;6308208;22;20357;-65
2022/03/23 06:00:35;;;;;;;12.05;7.97;;;2.60;77.40;;;;;;6310257;22;20436;-65
2022/03/23 06:03:01;;;;;;;12.15;7.78;;;2.60;77.50;;;;;;6310653;22;19999;-65
2022/03/23 06:05:27;;;;;;;13.68;7.60;;;2.70;77.30;;;;;;6309535;22;20095;-65
2022/03/23 06:07:52;;;;;;;14.13;8.02;;;2.90;76.60;;;;;;6309304;22;20011;-65
2022/03/23 06:10:22;;;;;;;11.57;7.38;;;3.10;76.20;;;;;;6310005;22;20353;-67
2022/03/23 06:12:47;;;;;;;12.43;8.55;;;3.20;76.00;;;;;;6308916;22;20261;-67
2022/03/23 06:15:13;;;;;;;12.38;7.05;;;3.10;76.50;;;;;;6283484;22;19999;-66
2022/03/23 06:17:39;;;;;;;14.27;8.35;;;3.10;77.20;;;;;;6310780;22;20357;-67
2022/03/23 06:20:06;;;;;;;12.70;8.00;;;3.10;77.40;;;;;;6310758;22;19995;-66
2022/03/23 06:22:32;;;;;;;13.00;8.25;;;3.10;77.80;;;;;;6310784;22;20042;-66
2022/03/23 06:24:58;;;;;;;15.55;7.85;;;3.20;77.60;;;;;;6310511;22;20000;-66
2022/03/23 06:27:25;;;;;;;12.35;8.70;;;3.40;77.00;;;;;;6309279;22;20304;-66
2022/03/23 06:29:50;;;;;;;14.60;8.05;;;3.60;76.60;;;;;;6310654;22;19999;-66
2022/03/23 06:32:17;;;;;;;12.98;7.32;;;3.80;76.20;;;;;;6310620;22;20003;-66
2022/03/23 06:34:43;;;;;;;13.23;7.55;;;4.00;76.60;;;;;;6310934;22;20014;-66
2022/03/23 06:37:08;;;;;;;15.90;8.43;;;4.10;76.60;;;;;;6310471;22;19999;-66
2022/03/23 06:39:34;;;;;;;12.02;8.35;;;4.20;76.20;;;;;;6312380;22;19995;-66
2022/03/23 06:42:00;;;;;;;13.20;8.20;;;4.40;75.60;;;;;;6311251;22;19995;-66
2022/03/23 06:44:26;;;;;;;15.10;8.38;;;4.60;74.40;;;;;;6312666;22;20070;-67
2022/03/23 06:46:52;;;;;;;11.50;8.18;;;4.70;73.60;;;;;;6312589;22;20003;-67
2022/03/23 06:49:18;;;;;;;11.98;7.50;;;4.90;72.70;;;;;;6312367;22;20065;-66
2022/03/23 06:51:44;;;;;;;13.45;8.10;;;5.10;71.90;;;;;;6312918;22;19999;-67
2022/03/23 06:54:09;;;;;;;11.70;7.88;;;5.30;72.00;;;;;;6312357;22;19999;-66
2022/03/23 06:56:35;;;;;;;11.93;7.65;;;5.40;72.10;;;;;;6310887;22;20052;-66
2022/03/23 06:59:01;;;;;;;12.77;8.10;;;5.60;71.50;;;;;;6312645;22;20144;-66
2022/03/23 07:01:26;;;;;;;16.00;8.25;;;5.80;70.00;;;;;;6312413;22;20006;-66
2022/03/23 07:03:52;;;;;;;18.08;11.18;;;6.00;69.40;;;;;;6312447;22;20010;-66
2022/03/23 07:06:18;;;;;;;20.92;11.63;;;6.20;70.30;;;;;;6312443;22;20053;-67
2022/03/23 07:11:29;;;;;;;15.98;9.25;;;6.50;71.00;;;;;;6311217;22;20010;-67
2022/03/23 07:13:55;;;;;;;11.38;7.57;;;6.60;70.80;;;;;;6312003;22;20003;-67
2022/03/23 07:16:21;;;;;;;11.73;7.88;;;6.70;71.10;;;;;;6312461;22;20070;-66
2022/03/23 07:18:46;;;;;;;11.40;7.47;;;6.90;70.70;;;;;;6311401;22;20132;-66
2022/03/23 07:21:12;;;;;;;14.65;7.72;;;7.10;70.10;;;;;;6311748;22;19999;-66
2022/03/23 07:23:38;;;;;;;11.25;7.45;;;7.30;68.80;;;;;;6311715;22;20265;-66
2022/03/23 07:26:04;;;;;;;12.55;7.05;;;7.60;67.80;;;;;;6311044;22;20003;-66
2022/03/23 07:28:30;;;;;;;13.50;7.88;;;7.80;68.70;;;;;;6310548;22;20074;-67
2022/03/23 07:30:56;;;;;;;12.48;7.22;;;7.90;68.90;;;;;;6311764;22;20060;-67
2022/03/23 07:33:22;;;;;;;12.15;7.75;;;8.10;68.00;;;;;;6311851;22;20011;-66
2022/03/23 07:35:48;;;;;;;11.65;7.65;;;8.20;68.20;;;;;;6312373;22;20070;-66
2022/03/23 07:38:14;;;;;;;14.23;7.63;;;8.30;68.40;;;;;;6312285;22;20283;-67
2022/03/23 07:40:41;;;;;;;11.05;7.40;;;8.50;67.20;;;;;;6311976;22;19999;-67
2022/03/23 07:43:07;;;;;;;10.93;7.25;;;8.70;63.10;;;;;;6308909;22;20010;-66
2022/03/23 07:45:33;;;;;;;13.77;10.75;;;9.00;59.40;;;;;;6311496;22;20070;-67
2022/03/23 07:47:59;;;;;;;13.32;8.80;;;9.20;60.50;;;;;;6310931;22;20034;-67
2022/03/23 07:50:25;;;;;;;12.00;8.88;;;9.40;61.10;;;;;;6310613;22;20357;-67
2022/03/23 07:52:51;;;;;;;12.10;8.75;;;9.50;59.90;;;;;;6311455;22;20003;-67
2022/03/23 07:55:17;;;;;;;18.95;10.00;;;9.70;59.10;;;;;;6311791;22;20003;-66
2022/03/23 07:57:43;;;;;;;16.38;10.07;;;9.80;58.00;;;;;;6310058;22;20007;-67
2022/03/23 08:00:10;;;;;;;13.05;8.63;;;9.90;58.60;;;;;;6311832;22;19999;-67
2022/03/23 08:02:35;;;;;;;15.27;10.27;;;10.10;59.00;;;;;;6311676;22;19999;-66
2022/03/23 08:05:01;;;;;;;17.75;10.80;;;10.30;59.00;;;;;;6311899;22;20007;-67
2022/03/23 08:07:29;;;;;;;15.88;10.13;;;10.30;58.90;;;;;;6311527;22;20019;-67
2022/03/23 08:09:55;;;;;;;15.18;9.02;;;10.40;59.50;;;;;;6311582;22;20067;-67
2022/03/23 08:12:21;;;;;;;15.07;9.45;;;10.50;59.10;;;;;;6310651;22;20074;-67
2022/03/23 08:14:46;;;;;;;16.42;8.60;;;10.50;59.70;;;;;;6311859;22;20323;-67
2022/03/23 08:17:12;;;;;;;14.95;9.52;;;10.70;59.40;;;;;;6311573;22;20398;-67
2022/03/23 08:19:38;;;;;;;13.10;9.20;;;10.80;59.10;;;;;;6311877;22;19999;-67
2022/03/23 08:22:04;;;;;;;13.68;8.75;;;10.90;57.80;;;;;;6311567;22;20074;-66
2022/03/23 08:24:30;;;;;;;14.93;9.77;;;11.20;58.30;;;;;;6311970;22;20056;-66
2022/03/23 08:26:56;;;;;;;16.55;10.60;;;11.70;58.50;;;;;;6310326;22;20370;-67
2022/03/23 08:29:22;;;;;;;16.40;10.38;;;12.50;56.40;;;;;;6311532;22;20007;-67
2022/03/23 08:31:47;;;;;;;15.90;10.65;;;13.60;54.80;;;;;;6311601;22;20052;-67
2022/03/23 08:34:16;;;;;;;15.88;11.30;;;14.80;52.40;;;;;;6311546;22;20007;-67
2022/03/23 08:36:41;;;;;;;19.30;13.27;;;15.50;52.40;;;;;;6311830;22;20056;-67
2022/03/23 08:39:07;;;;;;;16.85;10.02;;;15.90;52.30;;;;;;6311612;22;19999;-67
2022/03/23 08:41:36;;;;;;;16.63;10.27;;;16.20;51.00;;;;;;6309987;22;20046;-67
2022/03/23 08:44:03;;;;;;;22.77;12.75;;;16.60;50.40;;;;;;6311658;22;20004;-67
2022/03/23 08:46:29;;;;;;;13.48;9.07;;;17.00;49.30;;;;;;6311516;22;20395;-67
2022/03/23 08:48:55;;;;;;;12.75;9.20;;;17.40;48.80;;;;;;6311852;22;20000;-67
2022/03/23 08:51:20;;;;;;;13.38;9.65;;;17.50;47.70;;;;;;6311540;22;20053;-67
2022/03/23 08:53:46;;;;;;;14.10;9.27;;;17.20;48.60;;;;;;6311299;22;20307;-66
2022/03/23 08:56:12;;;;;;;14.00;10.00;;;17.70;48.70;;;;;;6311543;22;20046;-66
2022/03/23 08:58:39;;;;;;;16.13;10.13;;;18.20;48.10;;;;;;6309943;22;20004;-66
2022/03/23 09:01:06;;;;;;;17.50;9.88;;;18.10;47.90;;;;;;6310840;22;20007;-66
2022/03/23 09:03:32;;;;;;;15.10;9.82;;;17.50;48.60;;;;;;6311376;22;20080;-67
2022/03/23 09:06:00;;;;;;;15.90;10.30;;;17.50;48.60;;;;;;6311767;22;20006;-68
2022/03/23 09:08:26;;;;;;;16.10;10.20;;;17.50;48.80;;;;;;6311211;22;20015;-67
2022/03/23 09:10:52;;;;;;;15.38;10.45;;;17.20;49.20;;;;;;6311024;22;19999;-67
2022/03/23 09:13:18;;;;;;;20.73;10.55;;;17.00;49.70;;;;;;6309512;22;20006;-67
2022/03/23 09:15:43;;;;;;;14.32;9.80;;;17.20;50.80;;;;;;6311319;22;20041;-66
2022/03/23 09:18:09;;;;;;;14.15;9.88;;;18.10;49.20;;;;;;6311187;22;19999;-66
2022/03/23 09:20:35;;;;;;;16.17;10.00;;;18.70;48.20;;;;;;6311283;22;19995;-67
2022/03/23 09:23:01;;;;;;;15.05;9.60;;;19.40;46.70;;;;;;6310928;22;19997;-66
2022/03/23 09:25:27;;;;;;;13.63;10.20;;;19.40;45.60;;;;;;6311335;22;20406;-66
2022/03/23 09:27:53;;;;;;;18.25;10.35;;;19.20;46.00;;;;;;6309411;22;20356;-66
2022/03/23 09:30:19;;;;;;;15.00;9.70;;;19.20;45.60;;;;;;6311120;22;19999;-66
2022/03/23 09:32:46;;;;;;;14.93;10.30;;;19.20;45.20;;;;;;6310977;22;19996;-66
2022/03/23 09:35:14;;;;;;;14.77;10.15;;;19.60;44.70;;;;;;6310969;22;20007;-66
2022/03/23 09:37:50;;;;;;;14.02;10.10;;;18.90;44.90;;;;;;6311299;22;19999;-66
2022/03/23 09:40:25;;;;;;;12.35;9.80;;;18.80;45.90;;;;;;6311088;22;20365;-66
2022/03/23 09:42:53;;;;;;;14.63;10.65;;;19.10;45.60;;;;;;6309035;22;20027;-66
2022/03/23 09:45:46;;;;;;;14.18;9.93;;;19.20;45.10;;;;;;6310800;22;19999;-66
2022/03/23 09:48:09;;;;;;;13.45;9.13;;;19.20;44.90;;;;;;6309879;22;19999;-66
2022/03/23 09:50:36;;;;;;;15.98;9.63;;;19.40;44.50;;;;;;6310997;22;20426;-66
2022/03/23 09:53:03;;;;;;;15.18;9.48;;;19.10;44.30;;;;;;6310382;22;20086;-65
2022/03/23 09:55:30;;;;;;;14.38;10.73;;;19.10;44.10;;;;;;6311147;22;19995;-66
2022/03/23 09:57:57;;;;;;;14.93;10.00;;;19.10;43.90;;;;;;6309724;22;20304;-66
2022/03/23 10:00:27;;;;;;;17.08;10.10;;;19.10;44.70;;;;;;6310694;22;19999;-66
2022/03/23 10:03:12;;;;;;;12.27;9.20;;;19.70;43.80;;;;;;6309288;22;20264;-67
2022/03/23 10:06:34;;;;;;;11.77;9.00;;;20.00;41.00;;;;;;6309644;22;20607;-67
2022/03/23 10:09:13;;;;;;;16.35;10.25;;;20.10;41.60;;;;;;6156372;23;20013;-66
2022/03/23 10:12:15;;;;;;;12.20;8.93;;;20.50;39.20;;;;;;6154349;23;20334;-66
2022/03/23 10:15:09;;;;;;;11.02;7.90;;;20.20;40.20;;;;;;6279224;22;20265;-66
2022/03/23 10:18:12;;;;;;;12.82;8.18;;;20.50;39.20;;;;;;6310478;22;20019;-67
2022/03/23 10:20:37;;;;;;;12.00;7.88;;;20.40;39.10;;;;;;6310469;22;20030;-67
2022/03/23 10:23:06;;;;;;;11.77;8.23;;;20.70;38.20;;;;;;6310458;22;19996;-66
2022/03/23 10:25:31;;;;;;;12.85;8.90;;;20.80;36.70;;;;;;6310710;22;20003;-67
2022/03/23 10:27:58;;;;;;;13.30;9.30;;;20.20;38.80;;;;;;6309015;22;19999;-66
2022/03/23 10:30:37;;;;;;;12.90;8.73;;;20.40;39.70;;;;;;6310989;22;20038;-67
2022/03/23 10:33:14;;;;;;;14.23;9.30;;;20.20;38.70;;;;;;6310505;22;20141;-67
2022/03/23 10:35:40;;;;;;;13.35;9.00;;;20.20;39.40;;;;;;6310629;22;20420;-67
2022/03/23 10:38:20;;;;;;;12.90;7.97;;;20.10;39.60;;;;;;6310206;22;20022;-66
2022/03/23 10:40:48;;;;;;;13.20;8.18;;;20.30;37.50;;;;;;6310854;22;19995;-66
2022/03/23 10:43:19;;;;;;;11.75;8.48;;;20.40;37.80;;;;;;6308444;22;20060;-66
2022/03/23 10:45:45;;;;;;;11.18;7.97;;;20.40;38.40;;;;;;6309635;22;20264;-66
2022/03/23 10:48:14;;;;;;;16.92;8.68;;;20.40;37.40;;;;;;6310637;22;20003;-67
2022/03/23 10:50:57;;;;;;;11.55;7.93;;;20.00;38.10;;;;;;6283726;22;20329;-66
2022/03/23 10:53:37;;;;;;;10.38;7.57;;;20.20;36.80;;;;;;6309871;22;20010;-67
2022/03/23 10:56:03;;;;;;;12.95;7.90;;;20.30;38.60;;;;;;6310442;22;20053;-67
2022/03/23 10:58:29;;;;;;;11.45;8.50;;;20.60;38.00;;;;;;6309045;22;20045;-67
2022/03/23 11:00:58;;;;;;;15.77;9.07;;;20.70;37.90;;;;;;6310606;22;20311;-66
2022/03/23 11:03:42;;;;;;;11.43;8.60;;;20.60;37.70;;;;;;6310455;22;20010;-67
2022/03/23 11:06:13;;;;;;;12.75;9.35;;;19.80;38.20;;;;;;6310233;22;20007;-66
2022/03/23 11:08:41;;;;;;;13.13;8.88;;;19.90;39.30;;;;;;6310177;22;20035;-66
2022/03/23 11:16:51;;;;;;;14.05;9.30;;;20.20;37.50;;;;;;6310667;22;20009;-66
2022/03/23 11:19:19;;;;;;;14.07;9.15;;;19.80;38.60;;;;;;6310550;22;20003;-66
2022/03/23 11:22:11;;;;;;;14.77;9.63;;;20.00;38.90;;;;;;6310256;22;20052;-66
2022/03/23 11:24:45;;;;;;;13.10;9.73;;;20.10;39.10;;;;;;6311684;22;20003;-67
2022/03/23 11:27:13;;;;;;;15.30;10.05;;;20.70;38.10;;;;;;6311045;22;20028;-67
2022/03/23 11:29:39;;;;;;;19.27;9.50;;;20.30;38.50;;;;;;6312110;22;20007;-66
2022/03/23 11:32:11;;;;;;;13.38;10.15;;;20.70;38.40;;;;;;6312121;22;20004;-67
2022/03/23 11:34:38;;;;;;;11.93;9.23;;;20.90;38.00;;;;;;6312226;22;20003;-66
2022/03/23 11:37:06;;;;;;;14.18;9.20;;;20.70;38.30;;;;;;6311842;22;19996;-66
2022/03/23 11:39:37;;;;;;;12.80;9.75;;;20.50;37.90;;;;;;6311803;22;20136;-66
2022/03/23 11:42:05;;;;;;;13.48;8.68;;;20.50;37.90;;;;;;6310688;22;19999;-66
2022/03/23 11:44:31;;;;;;;12.07;9.05;;;20.60;38.50;;;;;;6311899;22;20018;-66
2022/03/23 11:47:27;;;;;;;15.23;8.85;;;20.80;38.50;;;;;;6312068;22;19999;-66
2022/03/23 11:50:09;;;;;;;12.70;8.82;;;21.10;38.80;;;;;;6258990;22;20327;-66
2022/03/23 11:53:08;;;;;;;16.63;9.60;;;21.40;36.60;;;;;;6311964;22;20420;-66
2022/03/23 11:55:50;;;;;;;15.63;8.70;;;21.10;37.70;;;;;;6302015;22;20015;-65
2022/03/23 11:58:26;;;;;;;14.05;9.05;;;20.90;38.10;;;;;;6310697;22;20057;-68
2022/03/23 12:00:52;;;;;;;13.35;9.57;;;21.00;37.70;;;;;;6311753;22;20078;-67
2022/03/23 12:03:53;;;;;;;15.18;8.75;;;21.40;36.50;;;;;;6312337;22;19999;-68
2022/03/23 12:06:44;;;;;;;15.88;10.35;;;21.40;37.80;;;;;;6311866;22;20018;-67
2022/03/23 12:09:29;;;;;;;15.07;9.98;;;20.70;37.60;;;;;;6250313;22;20451;-67
2022/03/23 12:11:56;;;;;;;15.93;9.75;;;20.40;37.60;;;;;;6248282;22;19996;-66
2022/03/23 12:14:31;;;;;;;12.45;9.38;;;20.10;38.80;;;;;;6249953;23;20004;-67
2022/03/23 12:17:01;;;;;;;13.63;9.80;;;20.10;38.60;;;;;;6249173;22;20004;-66
2022/03/23 12:19:32;;;;;;;13.55;10.20;;;20.30;38.70;;;;;;6248997;22;20000;-66
2022/03/23 12:22:06;;;;;;;12.75;9.77;;;20.30;38.10;;;;;;6249101;22;20054;-66
2022/03/23 12:24:41;;;;;;;13.70;9.38;;;20.50;38.30;;;;;;6248904;23;20008;-66
2022/03/23 12:27:28;;;;;;;12.73;9.77;;;20.60;38.70;;;;;;6247508;23;20406;-66
2022/03/23 12:29:58;;;;;;;13.23;10.18;;;20.50;38.80;;;;;;6250113;23;20004;-66
2022/03/23 12:32:35;;;;;;;14.05;9.45;;;20.40;37.70;;;;;;6250075;22;20443;-66
2022/03/23 12:35:01;;;;;;;12.68;10.10;;;20.30;38.90;;;;;;6249540;22;20027;-66
2022/03/23 12:37:39;;;;;;;13.00;9.75;;;20.30;38.50;;;;;;6249212;22;20023;-66
2022/03/23 12:40:14;;;;;;;12.23;9.30;;;20.10;37.30;;;;;;6250064;22;20309;-66
2022/03/23 12:42:43;;;;;;;15.25;9.88;;;20.00;38.90;;;;;;6247288;23;20007;-65
2022/03/23 12:45:32;;;;;;;13.35;9.57;;;20.20;37.40;;;;;;6248657;22;20000;-65
2022/03/23 12:57:49;;;;;;;12.45;10.15;;;20.10;37.80;;;;;;6249108;22;20008;-65
2022/03/23 12:59:23;;;;;;;13.85;9.23;;;20.00;38.70;;;;;;6249045;23;20026;-66
2022/03/23 13:02:30;;;;;;;11.90;8.88;;;19.90;38.90;;;;;;6247553;23;20011;-66
2022/03/23 13:04:56;;;;;;;12.48;9.60;;;19.90;40.20;;;;;;6249274;22;20000;-67
2022/03/23 13:07:28;;;;;;;12.50;9.27;;;19.90;38.60;;;;;;6270220;22;20046;-66
2022/03/23 13:09:57;;;;;;;15.18;9.60;;;19.60;38.60;;;;;;6311151;22;20265;-66
2022/03/23 13:12:26;;;;;;;15.38;9.95;;;19.20;39.50;;;;;;6309464;22;20078;-66